createdAt,value
2022-12-04T00:01:50.724Z,39.40
2022-12-04T00:04:21.143Z,38.03
2022-12-04T00:06:55.502Z,37.05
2022-12-04T00:09:29.205Z,34.90
2022-12-04T00:12:11.328Z,36.63
2022-12-04T00:15:23.883Z,33.97
2022-12-04T00:17:41.830Z,39.92
2022-12-04T00:20:12.557Z,37.28
2022-12-04T00:28:12.289Z,35.08
2022-12-04T00:30:46.471Z,36.33
2022-12-04T00:33:17.123Z,34.55
2022-12-04T00:35:47.366Z,35.20
2022-12-04T00:38:34.658Z,35.85
2022-12-04T00:41:23.656Z,34.83
2022-12-04T00:43:54.818Z,33.92
2022-12-04T00:46:25.952Z,35.20
2022-12-04T00:48:57.237Z,38.28
2022-12-04T00:54:45.240Z,38.10
2022-12-04T00:57:15.958Z,40.22
2022-12-04T01:00:05.672Z,40.88
2022-12-04T01:02:36.112Z,38.38
2022-12-04T01:05:06.928Z,39.72
2022-12-04T01:10:26.577Z,40.17
2022-12-04T01:15:45.791Z,41.67
2022-12-04T01:18:16.961Z,42.85
2022-12-04T01:20:52.923Z,49.67
2022-12-04T01:23:23.561Z,69.45
2022-12-04T01:25:56.616Z,63.72
2022-12-04T01:28:28.140Z,60.88
2022-12-04T01:31:04.557Z,53.83
2022-12-04T01:33:36.745Z,56.95
2022-12-04T01:36:13.808Z,56.80
2022-12-04T01:38:44.877Z,56.72
2022-12-04T01:41:17.334Z,55.97
2022-12-04T01:43:47.955Z,57.95
2022-12-04T01:46:18.497Z,64.97
2022-12-04T01:48:55.911Z,80.85
2022-12-04T01:51:32.911Z,76.95
2022-12-04T01:54:09.918Z,86.78
2022-12-04T01:56:50.810Z,81.13
2022-12-04T01:59:24.878Z,62.42
2022-12-04T02:02:08.415Z,58.92
2022-12-04T02:04:39.223Z,56.90
2022-12-04T02:09:43.414Z,59.33
2022-12-04T02:12:41.523Z,55.65
2022-12-04T02:15:24.274Z,56.03
2022-12-04T02:18:23.127Z,69.32
2022-12-04T02:21:08.688Z,72.82
2022-12-04T02:24:01.575Z,66.70
2022-12-04T02:26:58.239Z,67.20
2022-12-04T02:29:50.863Z,66.32
2022-12-04T02:32:30.737Z,71.55
2022-12-04T02:35:08.710Z,71.90
2022-12-04T02:37:46.224Z,71.03
2022-12-04T02:40:43.361Z,70.03
2022-12-04T02:43:23.487Z,72.75
2022-12-04T02:46:16.323Z,70.00
2022-12-04T02:48:49.681Z,70.20
2022-12-04T02:51:23.778Z,73.40
2022-12-04T02:53:59.503Z,73.68
2022-12-04T02:56:33.873Z,69.57
2022-12-04T02:59:11.476Z,70.60
2022-12-04T03:01:45.786Z,69.63
2022-12-04T03:04:23.172Z,70.30
2022-12-04T03:06:59.475Z,67.80
2022-12-04T03:09:41.344Z,63.22
2022-12-04T03:12:32.535Z,64.65
2022-12-04T03:15:11.162Z,63.90
2022-12-04T03:17:55.512Z,64.60
2022-12-04T03:20:27.356Z,69.25
2022-12-04T03:23:04.799Z,65.68
2022-12-04T03:25:43.233Z,68.18
2022-12-04T03:28:24.193Z,69.00
2022-12-04T03:31:01.661Z,69.53
2022-12-04T03:33:44.961Z,80.45
2022-12-04T03:36:22.175Z,75.45
2022-12-04T03:39:12.735Z,73.55
2022-12-04T03:42:02.303Z,71.43
2022-12-04T03:44:48.459Z,72.38
2022-12-04T03:47:27.596Z,77.95
2022-12-04T03:50:04.562Z,78.97
2022-12-04T03:52:49.498Z,84.25
2022-12-04T03:55:55.932Z,81.15
2022-12-04T03:58:31.473Z,85.63
2022-12-04T04:01:05.634Z,84.70
2022-12-04T04:03:43.485Z,87.53
2022-12-04T04:06:21.117Z,88.07
2022-12-04T04:08:56.228Z,90.55
2022-12-04T04:11:45.811Z,87.95
2022-12-04T04:14:44.908Z,88.18
2022-12-04T04:17:38.730Z,86.70
2022-12-04T04:20:35.835Z,88.78
2022-12-04T04:23:25.972Z,87.13
2022-12-04T04:25:59.875Z,82.95
2022-12-04T04:28:40.847Z,79.05
2022-12-04T04:31:27.232Z,76.70
2022-12-04T04:34:14.983Z,80.20
2022-12-04T04:37:14.619Z,81.65
2022-12-04T04:40:17.593Z,79.57
2022-12-04T04:43:03.312Z,70.93
2022-12-04T04:45:47.801Z,72.20
2022-12-04T04:48:32.518Z,69.15
2022-12-04T04:51:04.695Z,73.97
2022-12-04T04:53:47.870Z,75.00
2022-12-04T04:56:18.678Z,74.20
2022-12-04T04:58:49.851Z,74.20
2022-12-04T05:01:25.490Z,72.95
2022-12-04T05:03:55.743Z,73.65
2022-12-04T05:06:25.758Z,74.68
2022-12-04T05:08:55.842Z,81.03
2022-12-04T05:11:25.901Z,86.57
2022-12-04T05:13:55.799Z,88.10
2022-12-04T05:16:26.137Z,83.18
2022-12-04T05:21:39.718Z,77.80
2022-12-04T05:24:10.068Z,76.85
2022-12-04T05:26:40.111Z,71.03
2022-12-04T05:29:09.962Z,67.70
2022-12-04T05:31:40.040Z,65.95
2022-12-04T05:34:10.114Z,68.60
2022-12-04T05:36:40.213Z,64.75
2022-12-04T05:39:15.910Z,53.58
2022-12-04T05:41:46.379Z,59.35
2022-12-04T05:44:17.158Z,57.58
2022-12-04T05:46:47.437Z,59.00
2022-12-04T05:51:47.112Z,69.05
2022-12-04T05:54:17.084Z,71.25
2022-12-04T05:56:47.658Z,69.72
2022-12-04T05:59:17.838Z,70.03
2022-12-04T06:01:48.165Z,66.82
2022-12-04T06:06:47.620Z,61.15
2022-12-04T06:09:17.692Z,60.88
2022-12-04T06:11:47.729Z,63.08
2022-12-04T06:17:15.396Z,63.03
2022-12-04T06:19:47.904Z,60.55
2022-12-04T06:22:17.931Z,60.90
2022-12-04T06:24:48.206Z,59.45
2022-12-04T06:30:04.675Z,63.95
2022-12-04T06:32:34.563Z,63.00
2022-12-04T06:35:04.673Z,68.53
2022-12-04T06:37:35.961Z,66.05
2022-12-04T06:40:06.365Z,65.80
2022-12-04T06:42:36.407Z,56.13
2022-12-04T06:45:06.935Z,55.22
2022-12-04T06:47:38.363Z,50.58
2022-12-04T06:50:08.983Z,49.45
2022-12-04T06:52:38.836Z,49.88
2022-12-04T06:55:09.235Z,49.75
2022-12-04T06:57:39.153Z,48.72
2022-12-04T07:00:09.780Z,46.25
2022-12-04T07:02:39.754Z,47.85
2022-12-04T07:05:10.126Z,50.58
2022-12-04T07:10:09.845Z,50.03
2022-12-04T07:12:39.950Z,49.53
2022-12-04T07:15:10.240Z,46.17
2022-12-04T07:20:09.937Z,32.70
2022-12-04T07:22:39.818Z,38.70
2022-12-04T07:25:10.013Z,36.33
2022-12-04T07:30:15.456Z,36.83
2022-12-04T07:32:45.929Z,36.92
2022-12-04T07:37:45.532Z,35.88
2022-12-04T07:40:16.186Z,36.33
2022-12-04T07:42:46.045Z,34.72
2022-12-04T07:45:16.191Z,36.53
2022-12-04T07:47:46.273Z,37.15
2022-12-04T07:50:16.269Z,36.92
2022-12-04T07:52:46.127Z,31.05
2022-12-04T07:55:21.604Z,30.88
2022-12-04T07:57:53.288Z,26.52
2022-12-04T08:02:53.175Z,26.03
2022-12-04T08:05:24.355Z,28.05
2022-12-04T08:07:54.183Z,26.77
2022-12-04T08:10:24.235Z,20.52
2022-12-04T08:12:56.267Z,20.70
2022-12-04T08:15:26.405Z,18.38
2022-12-04T08:20:25.776Z,20.38
2022-12-04T08:22:55.829Z,18.90
2022-12-04T08:25:25.752Z,18.23
2022-12-04T08:27:55.933Z,18.65
2022-12-04T08:32:55.506Z,16.45
2022-12-04T08:37:54.727Z,16.60
2022-12-04T08:40:25.150Z,15.68
2022-12-04T08:42:55.035Z,14.95
2022-12-04T08:45:24.985Z,16.10
2022-12-04T08:47:54.967Z,16.80
2022-12-04T08:50:24.997Z,16.70
2022-12-04T08:52:55.151Z,17.10
2022-12-04T08:55:25.017Z,16.55
2022-12-04T08:57:57.242Z,16.17
2022-12-04T09:00:28.951Z,17.10
2022-12-04T09:02:59.253Z,15.98
2022-12-04T09:05:29.420Z,15.88
2022-12-04T09:07:59.487Z,16.77
2022-12-04T09:10:33.122Z,15.52
2022-12-04T09:13:03.144Z,16.75
2022-12-04T09:15:33.494Z,16.58
2022-12-04T09:20:32.728Z,15.75
2022-12-04T09:23:04.443Z,13.95
2022-12-04T09:25:40.335Z,13.35
2022-12-04T09:28:10.182Z,14.88
2022-12-04T09:30:40.114Z,14.65
2022-12-04T09:33:10.191Z,13.93
2022-12-04T09:35:41.683Z,13.35
2022-12-04T09:38:11.563Z,14.68
2022-12-04T09:40:54.556Z,14.23
2022-12-04T09:43:37.860Z,15.38
2022-12-04T09:46:19.617Z,18.52
2022-12-04T09:48:57.911Z,17.58
2022-12-04T09:51:28.404Z,17.95
2022-12-04T09:54:05.219Z,18.75
2022-12-04T09:56:35.553Z,19.05
2022-12-04T10:01:54.134Z,18.92
2022-12-04T10:04:28.201Z,18.17
2022-12-04T10:07:27.423Z,23.30
2022-12-04T10:10:21.088Z,20.63
2022-12-04T10:13:14.853Z,19.88
2022-12-04T10:16:12.073Z,20.42
2022-12-04T10:19:08.353Z,21.25
2022-12-04T10:21:54.556Z,21.95
2022-12-04T10:24:42.236Z,19.25
2022-12-04T10:27:20.158Z,20.77
2022-12-04T10:29:55.822Z,20.27
2022-12-04T10:32:32.590Z,20.65
2022-12-04T10:35:23.276Z,21.33
2022-12-04T10:38:01.847Z,22.30
2022-12-04T10:40:50.747Z,20.73
2022-12-04T10:43:49.585Z,21.98
2022-12-04T10:46:28.863Z,21.95
2022-12-04T10:49:11.266Z,28.65
2022-12-04T10:51:44.548Z,38.30
2022-12-04T10:54:38.599Z,39.58
2022-12-04T10:57:11.867Z,35.30
2022-12-04T10:59:59.878Z,35.97
2022-12-04T11:02:35.493Z,33.60
2022-12-04T11:05:10.277Z,31.02
2022-12-04T11:07:49.769Z,29.10
2022-12-04T11:10:41.828Z,29.40
2022-12-04T11:13:22.823Z,31.83
2022-12-04T11:15:55.796Z,45.25
2022-12-04T11:18:31.186Z,36.47
2022-12-04T11:21:28.509Z,37.40
2022-12-04T11:23:58.760Z,31.73
2022-12-04T11:26:44.845Z,31.58
2022-12-04T11:29:18.101Z,30.33
2022-12-04T11:32:04.174Z,30.15
2022-12-04T11:34:42.439Z,30.75
2022-12-04T11:37:27.319Z,28.30
2022-12-04T11:39:58.520Z,38.03
2022-12-04T11:42:32.683Z,34.30
2022-12-04T11:45:05.929Z,32.45
2022-12-04T11:47:36.297Z,37.17
2022-12-04T11:53:17.271Z,44.17
2022-12-04T11:56:15.143Z,66.50
2022-12-04T11:59:14.910Z,41.17
2022-12-04T12:02:17.142Z,37.25
2022-12-04T12:05:25.356Z,35.97
2022-12-04T12:08:27.809Z,34.40
2022-12-04T12:11:31.821Z,31.30
2022-12-04T12:14:25.749Z,35.50
2022-12-04T12:17:03.939Z,35.55
2022-12-04T12:20:01.850Z,32.42
2022-12-04T12:23:01.319Z,35.65
2022-12-04T12:25:52.738Z,31.70
2022-12-04T12:28:57.036Z,36.05
2022-12-04T12:31:55.372Z,36.88
2022-12-04T12:34:45.337Z,32.53
2022-12-04T12:37:37.227Z,31.23
2022-12-04T12:40:24.160Z,30.20
2022-12-04T12:43:03.051Z,33.22
2022-12-04T12:45:43.887Z,30.05
2022-12-04T12:48:45.701Z,29.98
2022-12-04T12:51:48.290Z,27.90
2022-12-04T12:54:46.444Z,28.63
2022-12-04T12:57:45.055Z,27.30
2022-12-04T13:00:21.835Z,31.02
2022-12-04T13:03:24.949Z,27.95
2022-12-04T13:05:58.659Z,31.10
2022-12-04T13:08:37.441Z,32.85
2022-12-04T13:11:18.169Z,33.65
2022-12-04T13:13:54.754Z,31.67
2022-12-04T13:16:45.999Z,34.15
2022-12-04T13:19:28.560Z,34.70
2022-12-04T13:22:20.744Z,35.47
2022-12-04T13:25:32.987Z,36.72
2022-12-04T13:28:40.232Z,63.05
2022-12-04T13:31:30.186Z,55.38
2022-12-04T13:34:28.496Z,75.40
2022-12-04T13:37:30.338Z,87.30
2022-12-04T13:40:30.905Z,79.97
2022-12-04T13:43:37.055Z,89.63
2022-12-04T13:46:23.796Z,77.50
2022-12-04T13:48:54.207Z,68.10
2022-12-04T13:51:36.970Z,59.95
2022-12-04T13:54:37.984Z,53.70
2022-12-04T13:57:23.915Z,47.25
2022-12-04T14:00:09.379Z,47.97
2022-12-04T14:02:53.476Z,45.53
2022-12-04T14:05:36.266Z,43.65
2022-12-04T14:08:19.018Z,44.95
2022-12-04T14:11:03.075Z,45.38
2022-12-04T14:13:50.185Z,49.00
2022-12-04T14:16:32.682Z,46.50
2022-12-04T14:19:04.821Z,50.40
2022-12-04T14:21:45.256Z,49.33
2022-12-04T14:24:38.679Z,73.10
2022-12-04T14:27:35.598Z,119.05
2022-12-04T14:30:07.033Z,101.32
2022-12-04T14:32:41.502Z,67.65
2022-12-04T14:35:20.218Z,114.57
2022-12-04T14:38:09.758Z,127.93
2022-12-04T14:40:46.973Z,120.47
2022-12-04T14:43:29.788Z,148.38
2022-12-04T14:46:34.315Z,143.15
2022-12-04T14:49:39.750Z,95.90
2022-12-04T14:52:36.726Z,97.22
2022-12-04T14:55:33.227Z,84.55
2022-12-04T14:58:34.035Z,63.28
2022-12-04T15:03:45.731Z,87.63
2022-12-04T15:06:23.811Z,79.27
2022-12-04T15:09:16.730Z,69.32
2022-12-04T15:12:04.836Z,67.18
2022-12-04T15:14:51.185Z,63.60
2022-12-04T15:17:21.810Z,57.83
2022-12-04T15:22:28.696Z,51.38
2022-12-04T15:24:59.139Z,47.70
2022-12-04T15:27:32.770Z,45.90
2022-12-04T15:30:04.582Z,48.28
2022-12-04T15:32:35.936Z,54.50
2022-12-04T15:35:11.807Z,52.30
2022-12-04T15:37:43.849Z,50.38
2022-12-04T15:40:23.969Z,50.47
2022-12-04T15:42:58.509Z,54.72
2022-12-04T15:45:36.458Z,50.38
2022-12-04T15:48:06.675Z,47.13
2022-12-04T15:50:36.800Z,50.35
2022-12-04T15:53:17.877Z,43.70
2022-12-04T15:55:56.322Z,49.55
2022-12-04T15:58:36.136Z,46.15
2022-12-04T16:01:11.383Z,46.78
2022-12-04T16:03:54.105Z,47.20
2022-12-04T16:06:36.652Z,68.40
2022-12-04T16:09:24.326Z,54.15
2022-12-04T16:12:29.054Z,48.38
2022-12-04T16:14:59.981Z,51.08
2022-12-04T16:17:34.644Z,51.72
2022-12-04T16:20:08.120Z,51.97
2022-12-04T16:22:38.084Z,61.78
2022-12-04T16:25:08.385Z,62.10
2022-12-04T16:27:38.347Z,64.60
2022-12-04T16:30:09.150Z,58.35
2022-12-04T16:32:39.692Z,53.28
2022-12-04T16:35:10.174Z,72.85
2022-12-04T16:37:40.284Z,73.07
2022-12-04T16:40:14.142Z,90.03
2022-12-04T16:42:47.254Z,55.30
2022-12-04T16:45:34.739Z,47.35
2022-12-04T16:48:05.436Z,37.78
2022-12-04T16:53:05.792Z,35.55
2022-12-04T16:55:41.690Z,34.95
2022-12-04T16:58:11.853Z,39.67
2022-12-04T17:00:45.521Z,40.08
2022-12-04T17:03:29.361Z,57.17
2022-12-04T17:06:00.249Z,67.88
2022-12-04T17:08:31.342Z,44.85
2022-12-04T17:11:01.296Z,46.00
2022-12-04T17:13:31.282Z,50.20
2022-12-04T17:16:01.766Z,47.63
2022-12-04T17:18:31.891Z,43.97
2022-12-04T17:21:01.979Z,40.88
2022-12-04T17:23:35.564Z,40.78
2022-12-04T17:26:07.228Z,48.97
2022-12-04T17:28:38.255Z,54.47
2022-12-04T17:31:17.696Z,90.88
2022-12-04T17:33:49.540Z,91.47
2022-12-04T17:36:23.787Z,86.70
2022-12-04T17:38:58.887Z,82.05
2022-12-04T17:41:28.794Z,78.97
2022-12-04T17:44:01.431Z,71.82
2022-12-04T17:46:31.557Z,59.50
2022-12-04T17:49:06.654Z,58.55
2022-12-04T17:51:37.551Z,58.47
2022-12-04T17:54:08.912Z,51.15
2022-12-04T17:56:43.309Z,52.35
2022-12-04T17:59:16.031Z,49.63
2022-12-04T18:01:46.306Z,47.00
2022-12-04T18:04:16.155Z,46.80
2022-12-04T18:06:47.318Z,44.92
2022-12-04T18:09:19.495Z,44.55
2022-12-04T18:11:50.623Z,42.03
2022-12-04T18:14:24.054Z,43.00
2022-12-04T18:16:56.819Z,39.75
2022-12-04T18:19:31.137Z,74.63
2022-12-04T18:22:01.620Z,62.42
2022-12-04T18:24:31.568Z,58.65
2022-12-04T18:27:01.552Z,50.85
2022-12-04T18:29:31.625Z,44.20
2022-12-04T18:32:01.583Z,43.80
2022-12-04T18:34:31.514Z,43.47
2022-12-04T18:37:01.488Z,39.80
2022-12-04T18:39:31.452Z,42.80
2022-12-04T18:42:01.372Z,46.10
2022-12-04T18:44:31.613Z,39.47
2022-12-04T18:47:01.601Z,66.28
2022-12-04T18:49:31.717Z,55.30
2022-12-04T18:52:02.154Z,40.75
2022-12-04T18:54:32.170Z,39.92
2022-12-04T18:57:02.132Z,39.33
2022-12-04T18:59:32.243Z,40.85
2022-12-04T19:02:02.242Z,35.25
2022-12-04T19:04:35.409Z,38.00
2022-12-04T19:07:06.572Z,37.55
2022-12-04T19:10:09.331Z,40.58
2022-12-04T19:12:26.526Z,56.45
2022-12-04T19:14:56.575Z,56.78
2022-12-04T19:17:26.599Z,60.50
2022-12-04T19:19:56.958Z,90.15
2022-12-04T19:22:27.087Z,230.40
2022-12-04T19:24:56.996Z,327.15
2022-12-04T19:27:29.888Z,194.38
2022-12-04T19:29:59.899Z,58.22
2022-12-04T19:32:29.886Z,36.90
2022-12-04T19:35:00.879Z,31.83
2022-12-04T19:37:30.813Z,31.75
2022-12-04T19:40:00.833Z,35.30
2022-12-04T19:42:33.193Z,42.28
2022-12-04T19:45:03.281Z,30.70
2022-12-04T19:47:33.996Z,27.55
2022-12-04T19:52:33.659Z,25.02
2022-12-04T19:55:03.640Z,29.52
2022-12-04T19:57:33.708Z,41.22
2022-12-04T20:00:04.226Z,40.10
2022-12-04T20:05:05.106Z,27.05
2022-12-04T20:07:35.329Z,26.05
2022-12-04T20:10:05.634Z,28.35
2022-12-04T20:12:35.612Z,25.80
2022-12-04T20:15:05.593Z,28.80
2022-12-04T20:17:35.556Z,28.80
2022-12-04T20:20:05.743Z,33.78
2022-12-04T20:22:36.689Z,33.15
2022-12-04T20:25:06.923Z,31.20
2022-12-04T20:27:36.931Z,72.15
2022-12-04T20:30:07.624Z,73.65
2022-12-04T20:35:08.737Z,47.47
2022-12-04T20:37:39.085Z,41.42
2022-12-04T20:40:09.525Z,37.95
2022-12-04T20:42:39.492Z,35.92
2022-12-04T20:45:10.791Z,36.80
2022-12-04T20:47:41.372Z,36.22
2022-12-04T20:50:12.137Z,34.85
2022-12-04T20:55:11.996Z,34.72
2022-12-04T20:57:41.830Z,35.08
2022-12-04T21:00:13.145Z,34.17
2022-12-04T21:02:45.081Z,34.58
2022-12-04T21:05:15.502Z,35.45
2022-12-04T21:07:45.462Z,34.95
2022-12-04T21:10:15.415Z,34.13
2022-12-04T21:12:55.676Z,39.03
2022-12-04T21:15:35.999Z,45.33
2022-12-04T21:18:06.059Z,43.47
2022-12-04T21:20:35.985Z,37.83
2022-12-04T21:23:05.925Z,38.38
2022-12-04T21:25:35.825Z,37.08
2022-12-04T21:28:05.803Z,48.50
2022-12-04T21:30:35.871Z,43.65
2022-12-04T21:33:05.850Z,40.35
2022-12-04T21:35:35.813Z,39.30
2022-12-04T21:38:05.829Z,45.55
2022-12-04T21:40:42.099Z,44.75
2022-12-04T21:43:13.131Z,43.63
2022-12-04T21:45:43.562Z,36.53
2022-12-04T21:48:14.302Z,34.05
2022-12-04T21:53:14.415Z,34.38
2022-12-04T21:55:51.090Z,36.63
2022-12-04T21:58:23.066Z,33.55
2022-12-04T22:00:54.372Z,44.20
2022-12-04T22:03:24.934Z,47.90
2022-12-04T22:05:55.647Z,46.63
2022-12-04T22:10:56.018Z,49.67
2022-12-04T22:13:26.649Z,52.55
2022-12-04T22:15:57.056Z,91.82
2022-12-04T22:18:27.709Z,112.20
2022-12-04T22:20:58.386Z,120.25
2022-12-04T22:25:58.883Z,71.43
2022-12-04T22:28:29.257Z,83.25
2022-12-04T22:31:03.971Z,106.75
2022-12-04T22:33:34.969Z,78.55
2022-12-04T22:36:08.891Z,87.45
2022-12-04T22:38:58.743Z,79.47
2022-12-04T22:44:00.340Z,66.38
2022-12-04T22:46:31.015Z,101.95
2022-12-04T22:51:31.903Z,53.72
2022-12-04T22:56:34.240Z,49.78
2022-12-04T22:59:04.640Z,52.33
2022-12-04T23:01:36.939Z,42.75
2022-12-04T23:04:07.596Z,40.13
2022-12-04T23:06:38.201Z,39.53
2022-12-04T23:09:14.017Z,36.30
2022-12-04T23:11:45.462Z,37.65
2022-12-04T23:14:17.904Z,37.75
2022-12-04T23:16:48.662Z,35.95
2022-12-04T23:21:56.631Z,32.53
2022-12-04T23:24:28.082Z,35.65
2022-12-04T23:26:58.506Z,34.13
2022-12-04T23:29:51.905Z,33.35
2022-12-04T23:32:19.394Z,35.13
2022-12-04T23:34:49.909Z,36.47
2022-12-04T23:37:20.465Z,37.22
2022-12-04T23:39:50.931Z,36.33
2022-12-04T23:42:21.504Z,37.55
2022-12-04T23:44:52.099Z,43.55
2022-12-04T23:47:22.764Z,41.72
2022-12-04T23:52:23.102Z,40.08
2022-12-04T23:54:53.684Z,40.60
2022-12-04T23:57:24.219Z,39.83
2022-12-04T23:59:55.841Z,39.10
